createdAt,value
2022-12-25T00:00:50.000Z,4.5
2022-12-25T00:03:04.000Z,4.9
2022-12-25T00:05:30.000Z,4.2
2022-12-25T00:07:55.000Z,4.45
2022-12-25T00:10:21.000Z,4.67
2022-12-25T00:12:50.000Z,3.7
2022-12-25T00:15:15.000Z,3.55
2022-12-25T00:17:42.000Z,3.6
2022-12-25T00:20:10.000Z,3.5
2022-12-25T00:22:33.000Z,3.4
2022-12-25T00:25:00.000Z,3.6
2022-12-25T00:27:24.000Z,3.37
2022-12-25T00:29:50.000Z,3.2
2022-12-25T00:32:42.000Z,2.9
2022-12-25T00:34:42.000Z,2.8
2022-12-25T00:37:07.000Z,2.6
2022-12-25T00:39:33.000Z,2.77
2022-12-25T00:41:59.000Z,2.55
2022-12-25T00:44:24.000Z,2.35
2022-12-25T00:46:50.000Z,2.3
2022-12-25T00:49:16.000Z,2
2022-12-25T00:51:43.000Z,2.2
2022-12-25T00:54:11.000Z,2.3
2022-12-25T00:56:34.000Z,2.2
2022-12-25T00:59:01.000Z,2.2
2022-12-25T01:01:38.000Z,2
2022-12-25T01:03:52.000Z,1.8
2022-12-25T01:06:18.000Z,1.9
2022-12-25T01:08:44.000Z,2
2022-12-25T01:11:09.000Z,2.03
2022-12-25T01:13:34.000Z,2.2
2022-12-25T01:16:01.000Z,2.3
2022-12-25T01:18:26.000Z,2.2
2022-12-25T01:20:52.000Z,1.9
2022-12-25T01:23:17.000Z,2.07
2022-12-25T01:25:43.000Z,2.2
2022-12-25T01:28:09.000Z,2.22
2022-12-25T01:30:35.000Z,2.75
2022-12-25T01:33:01.000Z,2.2
2022-12-25T01:35:27.000Z,2.1
2022-12-25T01:37:52.000Z,2.1
2022-12-25T01:40:19.000Z,2.07
2022-12-25T01:42:44.000Z,2.05
2022-12-25T01:45:13.000Z,1.8
2022-12-25T01:47:37.000Z,2.15
2022-12-25T01:50:02.000Z,2.2
2022-12-25T01:52:27.000Z,2.4
2022-12-25T01:54:53.000Z,2.2
2022-12-25T01:57:20.000Z,2.2
2022-12-25T01:59:49.000Z,1.8
2022-12-25T02:02:11.000Z,1.9
2022-12-25T02:04:37.000Z,1.8
2022-12-25T02:07:03.000Z,2.05
2022-12-25T02:09:29.000Z,1.9
2022-12-25T02:11:54.000Z,1.9
2022-12-25T02:14:20.000Z,1.63
2022-12-25T02:16:49.000Z,1.92
2022-12-25T02:19:14.000Z,2
2022-12-25T02:21:41.000Z,1.9
2022-12-25T02:24:06.000Z,2
2022-12-25T02:26:31.000Z,2
2022-12-25T02:28:57.000Z,2.2
2022-12-25T02:31:23.000Z,2.3
2022-12-25T02:33:49.000Z,2.1
2022-12-25T02:36:15.000Z,2.1
2022-12-25T02:38:43.000Z,2.2
2022-12-25T02:41:12.000Z,2.17
2022-12-25T02:43:36.000Z,2.4
2022-12-25T02:46:01.000Z,2.6
2022-12-25T02:48:27.000Z,2.33
2022-12-25T02:50:52.000Z,2.6
2022-12-25T02:53:19.000Z,2.9
2022-12-25T02:55:45.000Z,2.85
2022-12-25T02:58:12.000Z,2.87
2022-12-25T03:00:48.000Z,2.9
2022-12-25T03:03:04.000Z,2.9
2022-12-25T03:05:29.000Z,2.7
2022-12-25T03:07:55.000Z,2.83
2022-12-25T03:10:21.000Z,3
2022-12-25T03:12:47.000Z,3.33
2022-12-25T03:15:12.000Z,3
2022-12-25T03:17:38.000Z,2.92
2022-12-25T03:20:06.000Z,3.33
2022-12-25T03:22:33.000Z,3.15
2022-12-25T03:24:56.000Z,3.1
2022-12-25T03:27:22.000Z,3.3
2022-12-25T03:29:47.000Z,3.13
2022-12-25T03:32:14.000Z,3.2
2022-12-25T03:34:40.000Z,3.4
2022-12-25T03:37:05.000Z,3.67
2022-12-25T03:39:31.000Z,3.3
2022-12-25T03:41:59.000Z,3.3
2022-12-25T03:44:23.000Z,2.77
2022-12-25T03:46:49.000Z,3.2
2022-12-25T03:49:14.000Z,2.9
2022-12-25T03:51:41.000Z,2.95
2022-12-25T03:54:07.000Z,2.7
2022-12-25T03:56:32.000Z,2.63
2022-12-25T03:58:58.000Z,2.8
2022-12-25T04:01:28.000Z,2.9
2022-12-25T04:03:50.000Z,2.5
2022-12-25T04:06:15.000Z,2.55
2022-12-25T04:08:42.000Z,2.8
2022-12-25T04:11:08.000Z,2.9
2022-12-25T04:13:34.000Z,2.5
2022-12-25T04:16:01.000Z,2.8
2022-12-25T04:18:25.000Z,2.67
2022-12-25T04:20:50.000Z,2.67
2022-12-25T04:23:18.000Z,3.4
2022-12-25T04:25:43.000Z,3.3
2022-12-25T04:28:09.000Z,2.8
2022-12-25T04:30:34.000Z,2.92
2022-12-25T04:32:59.000Z,3.27
2022-12-25T04:35:27.000Z,3.17
2022-12-25T04:37:53.000Z,2.98
2022-12-25T04:40:22.000Z,2.6
2022-12-25T04:42:44.000Z,2.43
2022-12-25T04:45:10.000Z,2.6
2022-12-25T04:47:36.000Z,2.6
2022-12-25T04:50:02.000Z,2.3
2022-12-25T04:52:34.000Z,2.2
2022-12-25T04:54:59.000Z,2.2
2022-12-25T04:57:26.000Z,2.15
2022-12-25T04:59:54.000Z,2.5
2022-12-25T05:02:16.000Z,2.1
2022-12-25T05:04:43.000Z,2
2022-12-25T05:07:08.000Z,2.1
2022-12-25T05:09:35.000Z,2
2022-12-25T05:11:59.000Z,2
2022-12-25T05:14:26.000Z,2
2022-12-25T05:16:52.000Z,2.5
2022-12-25T05:19:17.000Z,2
2022-12-25T05:21:44.000Z,2.1
2022-12-25T05:24:10.000Z,2.4
2022-12-25T05:26:35.000Z,2.4
2022-12-25T05:29:00.000Z,2.25
2022-12-25T05:31:27.000Z,2.65
2022-12-25T05:33:53.000Z,2.45
2022-12-25T05:36:18.000Z,2.47
2022-12-25T05:38:44.000Z,2.6
2022-12-25T05:41:10.000Z,2.43
2022-12-25T05:43:36.000Z,2.5
2022-12-25T05:46:01.000Z,2.5
2022-12-25T05:48:27.000Z,2.4
2022-12-25T05:50:54.000Z,2.5
2022-12-25T05:53:19.000Z,2.4
2022-12-25T05:55:45.000Z,2.5
2022-12-25T05:58:11.000Z,2.47
2022-12-25T06:01:02.000Z,2.43
2022-12-25T06:03:48.000Z,2.5
2022-12-25T06:05:34.000Z,2.5
2022-12-25T06:07:55.000Z,2.6
2022-12-25T06:10:20.000Z,2.55
2022-12-25T06:12:46.000Z,2.22
2022-12-25T06:15:12.000Z,2.4
2022-12-25T06:17:38.000Z,2.27
2022-12-25T06:20:05.000Z,2.3
2022-12-25T06:22:30.000Z,2.4
2022-12-25T06:24:56.000Z,2.62
2022-12-25T06:27:22.000Z,2.55
2022-12-25T06:29:49.000Z,2.7
2022-12-25T06:32:14.000Z,2.7
2022-12-25T06:34:39.000Z,2.5
2022-12-25T06:37:06.000Z,2.5
2022-12-25T06:39:31.000Z,2.77
2022-12-25T06:41:57.000Z,2.5
2022-12-25T06:44:23.000Z,2.77
2022-12-25T06:46:49.000Z,2.5
2022-12-25T06:49:15.000Z,2.9
2022-12-25T06:51:41.000Z,2.8
2022-12-25T06:54:08.000Z,2.8
2022-12-25T06:56:32.000Z,2.83
2022-12-25T06:58:57.000Z,2.8
2022-12-25T07:01:32.000Z,2.9
2022-12-25T07:03:50.000Z,3.08
2022-12-25T07:06:16.000Z,3
2022-12-25T07:08:41.000Z,3.13
2022-12-25T07:11:08.000Z,2.83
2022-12-25T07:13:33.000Z,3.2
2022-12-25T07:15:59.000Z,3.25
2022-12-25T07:18:25.000Z,3.5
2022-12-25T07:20:50.000Z,3.27
2022-12-25T07:23:17.000Z,3.62
2022-12-25T07:25:43.000Z,3.83
2022-12-25T07:28:10.000Z,3.6
2022-12-25T07:30:36.000Z,3.62
2022-12-25T07:33:02.000Z,4.3
2022-12-25T07:35:28.000Z,4.1
2022-12-25T07:37:55.000Z,3.87
2022-12-25T07:40:20.000Z,3.62
2022-12-25T07:42:47.000Z,4.03
2022-12-25T07:45:12.000Z,4.28
2022-12-25T07:47:39.000Z,4.22
2022-12-25T07:50:04.000Z,4.3
2022-12-25T07:52:30.000Z,4.4
2022-12-25T07:54:57.000Z,4.72
2022-12-25T07:57:22.000Z,4.5
2022-12-25T07:59:57.000Z,4.2
2022-12-25T08:02:13.000Z,4.45
2022-12-25T08:04:39.000Z,4.65
2022-12-25T08:07:06.000Z,4.58
2022-12-25T08:09:31.000Z,4.8
2022-12-25T08:11:56.000Z,4.5
2022-12-25T08:14:23.000Z,4.87
2022-12-25T08:16:49.000Z,4.65
2022-12-25T08:19:15.000Z,5.05
2022-12-25T08:21:41.000Z,4.87
2022-12-25T08:24:07.000Z,4.35
2022-12-25T08:26:33.000Z,4.7
2022-12-25T08:28:58.000Z,4.55
2022-12-25T08:31:24.000Z,4.5
2022-12-25T08:33:50.000Z,4.5
2022-12-25T08:36:16.000Z,4.9
2022-12-25T08:38:43.000Z,4.85
2022-12-25T08:41:09.000Z,5
2022-12-25T08:43:34.000Z,4.67
2022-12-25T08:46:00.000Z,4.67
2022-12-25T08:48:26.000Z,5
2022-12-25T08:50:51.000Z,5.17
2022-12-25T08:53:17.000Z,5.07
2022-12-25T08:55:43.000Z,5.35
2022-12-25T08:58:09.000Z,5.33
2022-12-25T09:00:46.000Z,5.12
2022-12-25T09:03:00.000Z,5.2
2022-12-25T09:05:26.000Z,5.45
2022-12-25T09:07:51.000Z,5.7
2022-12-25T09:10:19.000Z,5.63
2022-12-25T09:12:44.000Z,5.97
2022-12-25T09:15:11.000Z,6.12
2022-12-25T09:17:39.000Z,5.75
2022-12-25T09:20:06.000Z,6.2
2022-12-25T09:22:31.000Z,6.22
2022-12-25T09:24:56.000Z,6.1
2022-12-25T09:27:23.000Z,6.5
2022-12-25T09:29:48.000Z,6.53
2022-12-25T09:32:14.000Z,6.67
2022-12-25T09:34:40.000Z,6.42
2022-12-25T09:37:05.000Z,6.6
2022-12-25T09:39:31.000Z,7.33
2022-12-25T09:41:57.000Z,7.23
2022-12-25T09:44:23.000Z,6.8
2022-12-25T09:46:48.000Z,6.6
2022-12-25T09:49:16.000Z,6.37
2022-12-25T09:51:41.000Z,6.63
2022-12-25T09:54:07.000Z,6.73
2022-12-25T09:56:34.000Z,6.6
2022-12-25T09:58:58.000Z,6.53
2022-12-25T10:01:30.000Z,6.58
2022-12-25T10:03:50.000Z,6.9
2022-12-25T10:06:15.000Z,6.83
2022-12-25T10:08:42.000Z,6.87
2022-12-25T10:11:09.000Z,7.2
2022-12-25T10:13:34.000Z,7.17
2022-12-25T10:15:59.000Z,6.77
2022-12-25T10:18:25.000Z,6.7
2022-12-25T10:20:50.000Z,7
2022-12-25T10:23:17.000Z,7.05
2022-12-25T10:25:42.000Z,6.87
2022-12-25T10:28:11.000Z,7.03
2022-12-25T10:30:38.000Z,7.3
2022-12-25T10:33:02.000Z,7.33
2022-12-25T10:35:28.000Z,7
2022-12-25T10:37:54.000Z,7.67
2022-12-25T10:40:21.000Z,8
2022-12-25T10:42:45.000Z,7.8
2022-12-25T10:45:13.000Z,7.37
2022-12-25T10:47:39.000Z,7.65
2022-12-25T10:50:05.000Z,7.5
2022-12-25T10:52:31.000Z,7.37
2022-12-25T10:54:58.000Z,7.65
2022-12-25T10:57:23.000Z,7.53
2022-12-25T10:59:51.000Z,8.1
2022-12-25T11:02:18.000Z,7.92
2022-12-25T11:04:44.000Z,7.58
2022-12-25T11:07:10.000Z,7.57
2022-12-25T11:09:35.000Z,7.53
2022-12-25T11:12:01.000Z,7.3
2022-12-25T11:14:27.000Z,7.93
2022-12-25T11:16:52.000Z,7.4
2022-12-25T11:19:19.000Z,7.45
2022-12-25T11:21:44.000Z,7.1
2022-12-25T11:24:10.000Z,7.13
2022-12-25T11:26:36.000Z,7.33
2022-12-25T11:29:01.000Z,7.1
2022-12-25T11:31:28.000Z,7.28
2022-12-25T11:33:55.000Z,6.83
2022-12-25T11:36:19.000Z,7
2022-12-25T11:38:45.000Z,7.2
2022-12-25T11:41:11.000Z,7
2022-12-25T11:43:38.000Z,6.97
2022-12-25T11:46:04.000Z,7.4
2022-12-25T11:48:29.000Z,6.55
2022-12-25T11:50:55.000Z,6.8
2022-12-25T11:53:20.000Z,6.62
2022-12-25T11:55:46.000Z,6.65
2022-12-25T11:58:13.000Z,6.58
2022-12-25T12:00:52.000Z,6.57
2022-12-25T12:03:07.000Z,6.35
2022-12-25T12:05:33.000Z,7.5
2022-12-25T12:07:58.000Z,6.6
2022-12-25T12:10:25.000Z,7.3
2022-12-25T12:12:49.000Z,7.6
2022-12-25T12:15:16.000Z,7.62
2022-12-25T12:17:43.000Z,8.1
2022-12-25T12:20:10.000Z,7.42
2022-12-25T12:22:35.000Z,7.7
2022-12-25T12:25:00.000Z,8.2
2022-12-25T12:27:26.000Z,7.58
2022-12-25T12:29:53.000Z,7.62
2022-12-25T12:32:19.000Z,7.25
2022-12-25T12:34:45.000Z,6.97
2022-12-25T12:37:11.000Z,7.15
2022-12-25T12:39:38.000Z,6.25
2022-12-25T12:42:04.000Z,6.37
2022-12-25T12:44:31.000Z,6.03
2022-12-25T12:46:57.000Z,5.4
2022-12-25T12:49:23.000Z,5.5
2022-12-25T12:51:49.000Z,5.7
2022-12-25T12:54:16.000Z,4.67
2022-12-25T12:56:41.000Z,5
2022-12-25T12:59:10.000Z,4.9
2022-12-25T13:01:46.000Z,4.97
2022-12-25T13:04:00.000Z,4.62
2022-12-25T13:06:27.000Z,4.53
2022-12-25T13:08:52.000Z,4.42
2022-12-25T13:11:18.000Z,4.3
2022-12-25T13:13:44.000Z,4.8
2022-12-25T13:16:10.000Z,4.37
2022-12-25T13:18:36.000Z,4.8
2022-12-25T13:21:02.000Z,4.7
2022-12-25T13:23:28.000Z,4.78
2022-12-25T13:25:55.000Z,5.2
2022-12-25T13:28:20.000Z,5.22
2022-12-25T13:30:49.000Z,5.55
2022-12-25T13:33:15.000Z,5.45
2022-12-25T13:35:42.000Z,5.4
2022-12-25T13:38:10.000Z,6.15
2022-12-25T13:40:34.000Z,5.4
2022-12-25T13:42:59.000Z,6.1
2022-12-25T13:45:29.000Z,6.85
2022-12-25T13:47:55.000Z,6.9
2022-12-25T13:50:20.000Z,6.03
2022-12-25T13:52:48.000Z,5.72
2022-12-25T13:55:14.000Z,5.75
2022-12-25T13:57:38.000Z,5.5
2022-12-25T14:00:06.000Z,5.42
2022-12-25T14:02:30.000Z,5.5
2022-12-25T14:04:56.000Z,5.53
2022-12-25T14:07:22.000Z,5.45
2022-12-25T14:09:48.000Z,5.7
2022-12-25T14:12:13.000Z,5.2
2022-12-25T14:14:41.000Z,5.7
2022-12-25T14:17:08.000Z,5.67
2022-12-25T14:19:33.000Z,5.78
2022-12-25T14:21:59.000Z,5.87
2022-12-25T14:24:28.000Z,5.5
2022-12-25T14:26:51.000Z,5.58
2022-12-25T14:29:17.000Z,5.4
2022-12-25T14:31:43.000Z,5.13
2022-12-25T14:34:10.000Z,5.2
2022-12-25T14:36:35.000Z,5.4
2022-12-25T14:39:02.000Z,5.12
2022-12-25T14:41:28.000Z,4.92
2022-12-25T14:43:54.000Z,4.8
2022-12-25T14:46:20.000Z,4.7
2022-12-25T14:48:46.000Z,4.9
2022-12-25T14:51:12.000Z,4.8
2022-12-25T14:53:38.000Z,4.8
2022-12-25T14:56:03.000Z,5.33
2022-12-25T14:58:30.000Z,5.6
2022-12-25T15:01:01.000Z,5.97
2022-12-25T15:03:22.000Z,5.92
2022-12-25T15:05:49.000Z,5.53
2022-12-25T15:08:14.000Z,5.8
2022-12-25T15:10:41.000Z,6.03
2022-12-25T15:13:07.000Z,6.08
2022-12-25T15:15:32.000Z,5.9
2022-12-25T15:17:58.000Z,6.12
2022-12-25T15:20:26.000Z,6.4
2022-12-25T15:22:49.000Z,6.27
2022-12-25T15:25:15.000Z,6.47
2022-12-25T15:27:41.000Z,6.33
2022-12-25T15:30:10.000Z,6.83
2022-12-25T15:32:33.000Z,6.5
2022-12-25T15:34:59.000Z,6.9
2022-12-25T15:37:25.000Z,6.97
2022-12-25T15:39:55.000Z,6.8
2022-12-25T15:42:18.000Z,6.9
2022-12-25T15:44:44.000Z,7
2022-12-25T15:47:10.000Z,6.67
2022-12-25T15:49:36.000Z,6.87
2022-12-25T15:52:04.000Z,6.83
2022-12-25T15:54:27.000Z,6.73
2022-12-25T15:56:53.000Z,6.4
2022-12-25T15:59:19.000Z,6.62
2022-12-25T16:02:41.000Z,6.9
2022-12-25T16:04:11.000Z,6.72
2022-12-25T16:06:36.000Z,6.78
2022-12-25T16:09:03.000Z,6.87
2022-12-25T16:11:28.000Z,7.05
2022-12-25T16:13:54.000Z,6.72
2022-12-25T16:16:22.000Z,7
2022-12-25T16:18:46.000Z,6.15
2022-12-25T16:21:13.000Z,6.22
2022-12-25T16:23:38.000Z,5.8
2022-12-25T16:26:05.000Z,5.67
2022-12-25T16:28:30.000Z,5.3
2022-12-25T16:30:55.000Z,5.6
2022-12-25T16:33:21.000Z,5.45
2022-12-25T16:35:47.000Z,5.37
2022-12-25T16:38:14.000Z,5.45
2022-12-25T16:40:39.000Z,5.17
2022-12-25T16:43:04.000Z,5.2
2022-12-25T16:45:30.000Z,4.87
2022-12-25T16:47:56.000Z,5.4
2022-12-25T16:50:24.000Z,5
2022-12-25T16:52:49.000Z,5.12
2022-12-25T16:55:14.000Z,5.37
2022-12-25T16:57:39.000Z,5.75
2022-12-25T17:00:09.000Z,5.62
2022-12-25T17:02:30.000Z,5.85
2022-12-25T17:04:57.000Z,5.8
2022-12-25T17:07:22.000Z,6.4
2022-12-25T17:09:49.000Z,5.9
2022-12-25T17:12:15.000Z,6.42
2022-12-25T17:14:40.000Z,6.5
2022-12-25T17:17:06.000Z,6.9
2022-12-25T17:19:31.000Z,6.67
2022-12-25T17:21:58.000Z,6.87
2022-12-25T17:24:24.000Z,7
2022-12-25T17:26:49.000Z,6.93
2022-12-25T17:29:15.000Z,7.13
2022-12-25T17:31:41.000Z,7
2022-12-25T17:34:06.000Z,7.2
2022-12-25T17:36:32.000Z,7.37
2022-12-25T17:38:58.000Z,6.5
2022-12-25T17:41:24.000Z,6.8
2022-12-25T17:43:52.000Z,6.42
2022-12-25T17:46:24.000Z,6.55
2022-12-25T17:48:44.000Z,6.28
2022-12-25T17:51:10.000Z,6.4
2022-12-25T17:53:35.000Z,6.4
2022-12-25T17:56:01.000Z,6.9
2022-12-25T17:58:27.000Z,6.2
2022-12-25T18:00:53.000Z,6.72
2022-12-25T18:03:20.000Z,6.8
2022-12-25T18:05:46.000Z,7.1
2022-12-25T18:08:12.000Z,7.53
2022-12-25T18:10:38.000Z,8.43
2022-12-25T18:13:03.000Z,8.25
2022-12-25T18:15:29.000Z,8.5
2022-12-25T18:17:54.000Z,8.33
2022-12-25T18:20:25.000Z,8.3
2022-12-25T18:22:45.000Z,8.13
2022-12-25T18:25:11.000Z,7.93
2022-12-25T18:27:36.000Z,8
2022-12-25T18:30:04.000Z,7.8
2022-12-25T18:32:29.000Z,7.97
2022-12-25T18:34:54.000Z,7.7
2022-12-25T18:37:24.000Z,7.55
2022-12-25T18:39:50.000Z,7.22
2022-12-25T18:42:17.000Z,7.1
2022-12-25T18:44:40.000Z,6.73
2022-12-25T18:47:06.000Z,7.25
2022-12-25T18:49:32.000Z,6.5
2022-12-25T18:51:58.000Z,5.72
2022-12-25T18:54:23.000Z,5.8
2022-12-25T18:56:49.000Z,6.23
2022-12-25T18:59:16.000Z,5.87
2022-12-25T19:01:47.000Z,6.15
2022-12-25T19:04:06.000Z,6.12
2022-12-25T19:06:31.000Z,5.57
2022-12-25T19:08:58.000Z,5.2
2022-12-25T19:11:24.000Z,5.08
2022-12-25T19:13:49.000Z,5.03
2022-12-25T19:16:16.000Z,5.1
2022-12-25T19:18:41.000Z,5
2022-12-25T19:21:08.000Z,4.9
2022-12-25T19:23:33.000Z,4.57
2022-12-25T19:25:58.000Z,4.7
2022-12-25T19:28:24.000Z,4.8
2022-12-25T19:30:50.000Z,4.03
2022-12-25T19:33:15.000Z,4
2022-12-25T19:35:41.000Z,3.98
2022-12-25T19:38:07.000Z,4
2022-12-25T19:40:38.000Z,4
2022-12-25T19:42:59.000Z,3.9
2022-12-25T19:45:26.000Z,3.7
2022-12-25T19:47:50.000Z,3.8
2022-12-25T19:50:21.000Z,3.5
2022-12-25T19:52:41.000Z,3.6
2022-12-25T19:55:08.000Z,3.5
2022-12-25T19:57:36.000Z,3.5
2022-12-25T20:00:02.000Z,3.75
2022-12-25T20:02:27.000Z,3.3
2022-12-25T20:04:53.000Z,3.42
2022-12-25T20:07:19.000Z,3.2
2022-12-25T20:09:46.000Z,3.17
2022-12-25T20:12:14.000Z,3.2
2022-12-25T20:14:38.000Z,3.12
2022-12-25T20:17:04.000Z,3.05
2022-12-25T20:19:30.000Z,3.58
2022-12-25T20:21:58.000Z,3.8
2022-12-25T20:24:21.000Z,3.6
2022-12-25T20:26:46.000Z,3.9
2022-12-25T20:29:13.000Z,3.8
2022-12-25T20:31:38.000Z,3.52
2022-12-25T20:34:09.000Z,3.6
2022-12-25T20:36:34.000Z,3.5
2022-12-25T20:38:59.000Z,3.37
2022-12-25T20:41:25.000Z,3.05
2022-12-25T20:43:50.000Z,3.12
2022-12-25T20:46:17.000Z,3.08
2022-12-25T20:48:42.000Z,3.07
2022-12-25T20:51:13.000Z,3.07
2022-12-25T20:53:33.000Z,2.95
2022-12-25T20:55:58.000Z,3.05
2022-12-25T20:58:25.000Z,2.87
2022-12-25T21:00:53.000Z,2.93
2022-12-25T21:03:17.000Z,3.07
2022-12-25T21:05:41.000Z,2.8
2022-12-25T21:08:08.000Z,2.9
2022-12-25T21:10:34.000Z,2.77
2022-12-25T21:12:59.000Z,2.77
2022-12-25T21:15:24.000Z,3
2022-12-25T21:17:50.000Z,2.72
2022-12-25T21:20:17.000Z,3.05
2022-12-25T21:22:42.000Z,2.8
2022-12-25T21:25:07.000Z,2.9
2022-12-25T21:27:34.000Z,2.8
2022-12-25T21:29:59.000Z,2.8
2022-12-25T21:32:25.000Z,2.63
2022-12-25T21:34:50.000Z,2.73
2022-12-25T21:37:16.000Z,2.98
2022-12-25T21:39:42.000Z,2.8
2022-12-25T21:42:08.000Z,2.8
2022-12-25T21:44:33.000Z,2.63
2022-12-25T21:46:59.000Z,3.03
2022-12-25T21:49:28.000Z,3
2022-12-25T21:51:51.000Z,2.9
2022-12-25T21:54:17.000Z,3
2022-12-25T21:56:43.000Z,3.05
2022-12-25T21:59:09.000Z,3.22
2022-12-25T22:01:45.000Z,3
2022-12-25T22:04:01.000Z,3.13
2022-12-25T22:06:28.000Z,3.4
2022-12-25T22:08:52.000Z,3.2
2022-12-25T22:11:19.000Z,3.57
2022-12-25T22:13:45.000Z,3.6
2022-12-25T22:16:12.000Z,3.7
2022-12-25T22:18:37.000Z,3.8
2022-12-25T22:21:02.000Z,3.6
2022-12-25T22:23:27.000Z,3.8
2022-12-25T22:25:55.000Z,3.9
2022-12-25T22:28:20.000Z,3.58
2022-12-25T22:30:46.000Z,3.53
2022-12-25T22:33:11.000Z,3.5
2022-12-25T22:35:37.000Z,3.3
2022-12-25T22:38:02.000Z,3.35
2022-12-25T22:40:28.000Z,3.42
2022-12-25T22:42:54.000Z,3.67
2022-12-25T22:45:21.000Z,3.62
2022-12-25T22:47:47.000Z,3.7
2022-12-25T22:50:16.000Z,3.65
2022-12-25T22:52:42.000Z,3.67
2022-12-25T22:55:10.000Z,3.83
2022-12-25T22:57:33.000Z,3.9
2022-12-25T22:59:59.000Z,3.7
2022-12-25T23:02:25.000Z,4.1
2022-12-25T23:04:50.000Z,4.08
2022-12-25T23:07:17.000Z,4
2022-12-25T23:09:43.000Z,3.8
2022-12-25T23:12:09.000Z,4.5
2022-12-25T23:14:35.000Z,4.67
2022-12-25T23:17:01.000Z,4.95
2022-12-25T23:19:27.000Z,4.15
2022-12-25T23:21:53.000Z,4.05
2022-12-25T23:24:19.000Z,4.35
2022-12-25T23:26:44.000Z,4.6
2022-12-25T23:29:10.000Z,4.85
2022-12-25T23:31:36.000Z,4.7
2022-12-25T23:34:01.000Z,4.87
2022-12-25T23:36:26.000Z,4.9
2022-12-25T23:38:53.000Z,5.12
2022-12-25T23:41:19.000Z,4.83
2022-12-25T23:43:46.000Z,5
2022-12-25T23:46:13.000Z,4.9
2022-12-25T23:48:38.000Z,5.3
2022-12-25T23:51:06.000Z,5.92
2022-12-25T23:53:29.000Z,5.6
2022-12-25T23:55:56.000Z,6.1
2022-12-25T23:58:25.000Z,5.55
